Mascara Metmore, Algeria
Current Conditions -  °F | °C
As of 1:00 PM on Wednesday 22 Oct 2014 (Local Time) from DAOV Reporting Station
Clear Clear  
Wind Chill: 79°   Ceiling: Unl
Heat Index: 79°   Visibility: 6mi
Dew Point: 48°   Wind: 16mph
Humidity: 34%   Direction: 360°N
Pressure: 30.24"   Gusts: NA
Location:  35.6°N, 0.3°E
Report Text: DAOV 221200Z 36014KT CAVOK 26/09 Q1024
Loading
Personal Weather Stations






























Interactive Weather Map
Tropical Storm Tracking
New forecast layout! Learn more

10-Day Weather Forecast

Advertisements
Track Severe Weather on mobile